Time;durP1;ratioP1;P1;durP2;ratioP2;P2;SDS_P1;SDS_P2;PMS_P1;PMS_P2;Temp;Humidity;BMP_temperature;BMP_pressure;BME280_temperature;BME280_humidity;BME280_pressure;Samples;Min_cycle;Max_cycle;Signal;HPM_P1;HPM_P2
2022/03/12 00:00:07;;;;;;;0.08;0.08;;;6.10;96.70;;;;;;5062584;28;20568;-63
2022/03/12 00:02:34;;;;;;;0.00;0.00;;;5.60;96.30;;;;;;5056419;28;20454;-63
2022/03/12 00:05:00;;;;;;;0.03;0.03;;;5.70;96.00;;;;;;5044244;28;20049;-63
2022/03/12 00:07:27;;;;;;;0.30;0.20;;;5.60;95.90;;;;;;5024850;28;20128;-63
2022/03/12 00:09:54;;;;;;;0.00;0.00;;;5.70;96.10;;;;;;5041656;28;20056;-63
2022/03/12 00:12:21;;;;;;;0.40;0.35;;;5.60;96.60;;;;;;5042205;28;20029;-63
2022/03/12 00:14:47;;;;;;;0.10;0.10;;;5.50;96.50;;;;;;5042010;28;20515;-63
2022/03/12 00:17:13;;;;;;;0.20;0.20;;;5.60;96.80;;;;;;5042666;28;20052;-63
2022/03/12 00:19:41;;;;;;;0.10;0.10;;;5.50;96.60;;;;;;5042033;28;20049;-63
2022/03/12 00:22:08;;;;;;;0.00;0.00;;;5.50;96.70;;;;;;5042534;28;20084;-63
2022/03/12 00:24:34;;;;;;;0.00;0.00;;;5.60;96.80;;;;;;5045902;28;20049;-63
2022/03/12 00:27:01;;;;;;;0.08;0.08;;;5.50;96.70;;;;;;5046314;28;20102;-63
2022/03/12 00:29:27;;;;;;;0.00;0.00;;;5.50;96.80;;;;;;5045789;28;20407;-62
2022/03/12 00:31:54;;;;;;;0.22;0.22;;;6.70;96.90;;;;;;5045562;28;20049;-62
2022/03/12 00:34:20;;;;;;;0.10;0.10;;;5.50;96.60;;;;;;5046359;28;20952;-62
2022/03/12 00:36:46;;;;;;;0.00;0.00;;;5.50;96.70;;;;;;5045297;28;20041;-63
2022/03/12 00:39:13;;;;;;;0.00;0.00;;;5.50;96.70;;;;;;5045208;28;20357;-62
2022/03/12 00:41:42;;;;;;;0.43;0.43;;;5.50;97.10;;;;;;5045524;28;20052;-63
2022/03/12 00:44:09;;;;;;;0.20;0.10;;;5.50;96.90;;;;;;5045860;28;20496;-63
2022/03/12 00:46:35;;;;;;;0.00;0.00;;;5.50;97.20;;;;;;5045195;28;20087;-63
2022/03/12 00:49:01;;;;;;;0.20;0.10;;;7.00;97.50;;;;;;5045566;28;20080;-63
2022/03/12 00:51:26;;;;;;;0.10;0.10;;;6.80;97.50;;;;;;5045811;28;20041;-62
2022/03/12 00:53:52;;;;;;;0.45;0.45;;;5.70;97.30;;;;;;5026365;28;20053;-63
2022/03/12 00:56:18;;;;;;;0.00;0.00;;;5.40;97.20;;;;;;5046049;28;20052;-63
2022/03/12 00:58:45;;;;;;;0.10;0.10;;;5.40;97.30;;;;;;5044821;28;20496;-65
2022/03/12 01:01:11;;;;;;;0.10;0.10;;;5.30;97.50;;;;;;5047678;28;20049;-63
2022/03/12 01:03:37;;;;;;;0.85;0.85;;;5.30;97.10;;;;;;5053511;28;20044;-62
2022/03/12 01:06:04;;;;;;;0.05;0.05;;;5.30;97.40;;;;;;5045618;28;20052;-62
2022/03/12 01:08:32;;;;;;;0.10;0.10;;;6.80;98.10;;;;;;5045012;28;20045;-63
2022/03/12 01:11:00;;;;;;;0.38;0.20;;;5.30;97.60;;;;;;5026554;28;20519;-62
2022/03/12 01:13:28;;;;;;;0.00;0.00;;;5.30;97.70;;;;;;5045056;28;20110;-63
2022/03/12 01:15:54;;;;;;;0.08;0.08;;;5.30;97.60;;;;;;5045027;28;20510;-62
2022/03/12 01:18:22;;;;;;;0.55;0.47;;;5.30;97.70;;;;;;5045006;28;20063;-63
2022/03/12 01:20:48;;;;;;;0.00;0.00;;;5.30;97.50;;;;;;5044838;28;20432;-62
2022/03/12 01:23:17;;;;;;;0.08;0.03;;;5.30;97.50;;;;;;5044294;28;20412;-62
2022/03/12 01:25:45;;;;;;;0.20;0.20;;;5.20;97.60;;;;;;5044725;28;20053;-62
2022/03/12 01:28:12;;;;;;;0.10;0.10;;;5.20;97.80;;;;;;5044477;28;20446;-63
2022/03/12 01:30:41;;;;;;;0.00;0.00;;;5.20;97.70;;;;;;5044688;28;20048;-63
2022/03/12 01:33:07;;;;;;;0.00;0.00;;;5.20;97.80;;;;;;5027101;28;20098;-63
2022/03/12 01:35:34;;;;;;;0.00;0.00;;;5.10;98.00;;;;;;5026526;28;20555;-63
2022/03/12 01:38:01;;;;;;;0.10;0.10;;;6.60;98.40;;;;;;5044187;28;20041;-62
2022/03/12 01:40:27;;;;;;;0.00;0.00;;;6.60;98.40;;;;;;5044806;28;20262;-62
2022/03/12 01:42:53;;;;;;;0.32;0.32;;;5.10;98.10;;;;;;5043850;28;20049;-62
2022/03/12 01:45:27;;;;;;;0.22;0.22;;;5.10;98.00;;;;;;5044782;28;20222;-63
2022/03/12 01:48:06;;;;;;;0.08;0.08;;;5.10;98.40;;;;;;5044020;28;20053;-62
2022/03/12 01:50:34;;;;;;;0.00;0.00;;;5.40;98.50;;;;;;5044504;28;20051;-62
2022/03/12 01:53:04;;;;;;;0.05;0.05;;;5.10;98.10;;;;;;5043865;28;20052;-63
2022/03/12 01:55:31;;;;;;;0.00;0.00;;;5.10;98.60;;;;;;5045295;28;20116;-63
2022/03/12 01:58:00;;;;;;;0.00;0.00;;;5.70;98.20;;;;;;5043528;28;20077;-63
2022/03/12 02:00:26;;;;;;;0.00;0.00;;;5.10;97.90;;;;;;5044209;28;20484;-62
2022/03/12 02:02:53;;;;;;;0.20;0.20;;;5.10;98.40;;;;;;5053656;28;20052;-62
2022/03/12 02:05:20;;;;;;;0.00;0.00;;;5.00;97.70;;;;;;5066813;22;20091;-59
2022/03/12 02:07:46;;;;;;;0.00;0.00;;;5.00;98.20;;;;;;5055781;28;20072;-61
2022/03/12 02:10:20;;;;;;;0.10;0.10;;;5.00;97.90;;;;;;5063114;28;20044;-61
2022/03/12 02:12:46;;;;;;;0.00;0.00;;;5.00;98.60;;;;;;5025597;28;20049;-61
2022/03/12 02:15:12;;;;;;;0.00;0.00;;;4.90;99.00;;;;;;5044239;28;20045;-59
2022/03/12 02:17:38;;;;;;;0.15;0.15;;;5.00;98.60;;;;;;5044123;28;20396;-59
2022/03/12 02:20:05;;;;;;;0.15;0.15;;;4.90;98.80;;;;;;5026442;28;20060;-59
2022/03/12 02:22:31;;;;;;;0.00;0.00;;;4.90;98.70;;;;;;5009833;28;20095;-59
2022/03/12 02:24:57;;;;;;;0.00;0.00;;;4.90;98.90;;;;;;5043101;28;20531;-61
2022/03/12 02:27:25;;;;;;;0.00;0.00;;;4.90;98.80;;;;;;5044177;28;20124;-62
2022/03/12 02:29:59;;;;;;;0.00;0.00;;;4.90;99.40;;;;;;5043041;28;20049;-61
2022/03/12 02:32:25;;;;;;;0.00;0.00;;;5.30;99.10;;;;;;5043882;28;20056;-61
2022/03/12 02:34:51;;;;;;;0.20;0.10;;;4.80;99.00;;;;;;5043356;28;20041;-61
2022/03/12 02:37:28;;;;;;;0.10;0.10;;;6.40;99.70;;;;;;5043694;28;20064;-61
2022/03/12 02:39:55;;;;;;;0.50;0.50;;;4.80;98.90;;;;;;5024741;28;20056;-60
2022/03/12 02:42:20;;;;;;;0.60;0.60;;;4.80;98.80;;;;;;5043686;28;20124;-61
2022/03/12 02:44:49;;;;;;;0.95;0.17;;;4.80;98.90;;;;;;5042765;28;20124;-61
2022/03/12 02:47:22;;;;;;;0.00;0.00;;;4.80;98.80;;;;;;5042765;28;20123;-61
2022/03/12 02:49:53;;;;;;;0.35;0.35;;;4.80;98.30;;;;;;5043142;28;20123;-61
2022/03/12 02:52:20;;;;;;;0.10;0.10;;;4.80;98.80;;;;;;5043390;28;20426;-61
2022/03/12 02:54:48;;;;;;;0.10;0.10;;;4.80;98.70;;;;;;5024923;28;20041;-61
2022/03/12 02:57:14;;;;;;;1.52;0.63;;;4.70;98.20;;;;;;5026070;28;20044;-61
2022/03/12 02:59:42;;;;;;;0.00;0.00;;;4.80;98.30;;;;;;5024872;28;20395;-61
2022/03/12 03:02:10;;;;;;;0.00;0.00;;;4.80;98.50;;;;;;5049309;28;20380;-61
2022/03/12 03:04:36;;;;;;;0.32;0.22;;;4.80;98.30;;;;;;5048387;28;20111;-61
2022/03/12 03:07:06;;;;;;;0.00;0.00;;;4.70;98.50;;;;;;5043450;28;20511;-61
2022/03/12 03:09:32;;;;;;;0.00;0.00;;;4.70;98.10;;;;;;5025457;28;20045;-61
2022/03/12 03:12:02;;;;;;;0.00;0.00;;;4.70;98.20;;;;;;5025276;28;20406;-60
2022/03/12 03:14:28;;;;;;;0.22;0.22;;;4.70;98.10;;;;;;5025545;28;20041;-61
2022/03/12 03:16:55;;;;;;;0.10;0.10;;;4.70;98.00;;;;;;5024861;28;20167;-62
2022/03/12 03:19:26;;;;;;;0.00;0.00;;;4.60;98.20;;;;;;5008953;28;20049;-61
2022/03/12 03:21:57;;;;;;;0.00;0.00;;;4.60;98.10;;;;;;5043174;28;20399;-61
2022/03/12 03:24:23;;;;;;;0.00;0.00;;;4.60;98.40;;;;;;5042139;28;20049;-61
2022/03/12 03:26:52;;;;;;;0.00;0.00;;;4.60;98.20;;;;;;5042410;28;20052;-61
2022/03/12 03:29:19;;;;;;;0.08;0.08;;;4.60;98.50;;;;;;5043156;28;20118;-61
2022/03/12 03:31:46;;;;;;;0.10;0.10;;;4.60;98.30;;;;;;5042486;28;20044;-61
2022/03/12 03:34:12;;;;;;;0.00;0.00;;;4.50;98.20;;;;;;5025202;28;20045;-61
2022/03/12 03:36:38;;;;;;;0.10;0.10;;;4.60;98.60;;;;;;5042962;28;20107;-61
2022/03/12 03:39:04;;;;;;;0.00;0.00;;;6.10;99.20;;;;;;5041904;28;20482;-61
2022/03/12 03:41:31;;;;;;;0.00;0.00;;;4.50;98.50;;;;;;5043269;28;20041;-61
2022/03/12 03:43:57;;;;;;;1.38;1.00;;;4.50;98.90;;;;;;5024727;28;20578;-61
2022/03/12 03:46:23;;;;;;;0.10;0.10;;;4.50;98.80;;;;;;5042815;28;20066;-61
2022/03/12 03:48:51;;;;;;;0.00;0.00;;;4.40;98.70;;;;;;5042179;28;20045;-61
2022/03/12 03:51:18;;;;;;;0.03;0.03;;;4.40;98.80;;;;;;5043032;28;20080;-61
2022/03/12 03:53:44;;;;;;;0.65;0.30;;;4.40;99.00;;;;;;5023764;28;20504;-60
2022/03/12 03:56:10;;;;;;;0.05;0.05;;;4.40;98.50;;;;;;5042582;28;20055;-61
2022/03/12 03:58:36;;;;;;;0.00;0.00;;;4.40;99.10;;;;;;5045161;28;20127;-61
2022/03/12 04:01:12;;;;;;;0.15;0.15;;;4.30;99.20;;;;;;5047849;28;20095;-61
2022/03/12 04:03:42;;;;;;;0.28;0.28;;;4.30;99.50;;;;;;5054846;28;20138;-61
2022/03/12 04:06:08;;;;;;;0.00;0.00;;;4.70;99.60;;;;;;5046536;28;20180;-61
2022/03/12 04:08:35;;;;;;;0.00;0.00;;;4.30;99.30;;;;;;5046228;28;20056;-61
2022/03/12 04:11:04;;;;;;;0.30;0.30;;;4.30;99.50;;;;;;5046217;28;20642;-62
2022/03/12 04:13:31;;;;;;;0.00;0.00;;;4.30;99.40;;;;;;5029379;28;20067;-61
2022/03/12 04:16:02;;;;;;;0.28;0.28;;;4.30;99.50;;;;;;5046309;28;20044;-61
2022/03/12 04:18:28;;;;;;;0.03;0.03;;;4.30;99.90;;;;;;5028341;28;20055;-61
2022/03/12 04:20:55;;;;;;;0.00;0.00;;;4.20;99.90;;;;;;5045972;28;20109;-60
2022/03/12 04:23:21;;;;;;;0.00;0.00;;;4.20;99.90;;;;;;5045651;28;20041;-61
2022/03/12 04:25:52;;;;;;;0.00;0.00;;;4.20;99.90;;;;;;5046048;28;20044;-61
2022/03/12 04:28:23;;;;;;;0.00;0.00;;;4.20;99.90;;;;;;5045714;28;20147;-61
2022/03/12 04:30:50;;;;;;;0.00;0.00;;;4.50;99.90;;;;;;5045966;28;20041;-61
2022/03/12 04:33:19;;;;;;;0.00;0.00;;;4.10;99.90;;;;;;5046046;28;20037;-61
2022/03/12 04:35:46;;;;;;;0.00;0.00;;;4.10;99.90;;;;;;5045274;28;20056;-61
2022/03/12 04:38:13;;;;;;;0.00;0.00;;;4.10;99.90;;;;;;5027851;28;20045;-60
2022/03/12 04:40:43;;;;;;;0.10;0.10;;;4.10;99.90;;;;;;5045824;28;20072;-61
2022/03/12 04:43:10;;;;;;;0.15;0.15;;;4.00;99.90;;;;;;5027678;28;20049;-61
2022/03/12 04:45:39;;;;;;;0.00;0.00;;;4.00;99.90;;;;;;5045683;28;20073;-61
2022/03/12 04:48:06;;;;;;;0.00;0.00;;;4.00;99.90;;;;;;5045902;28;20048;-61
2022/03/12 04:50:31;;;;;;;0.08;0.03;;;4.00;99.90;;;;;;5045885;28;20107;-61
2022/03/12 04:52:59;;;;;;;0.45;0.43;;;4.00;99.90;;;;;;5044634;28;20076;-61
2022/03/12 04:55:27;;;;;;;0.35;0.35;;;3.90;99.90;;;;;;5027966;28;20053;-60
2022/03/12 04:57:54;;;;;;;0.75;0.43;;;3.90;99.90;;;;;;5027778;28;20057;-61
2022/03/12 05:00:25;;;;;;;0.10;0.10;;;3.90;99.90;;;;;;5045731;28;20072;-61
2022/03/12 05:03:08;;;;;;;0.13;0.13;;;3.80;99.90;;;;;;5056553;28;20040;-61
2022/03/12 05:05:41;;;;;;;0.00;0.00;;;4.80;99.90;;;;;;5044282;28;20140;-61
2022/03/12 05:08:09;;;;;;;0.68;0.68;;;3.80;99.90;;;;;;5027481;28;20048;-61
2022/03/12 05:10:35;;;;;;;0.00;0.00;;;3.70;99.90;;;;;;5044499;28;20135;-60
2022/03/12 05:13:01;;;;;;;0.00;0.00;;;3.70;99.90;;;;;;5027580;28;20144;-61
2022/03/12 05:15:36;;;;;;;0.00;0.00;;;3.70;99.90;;;;;;5027784;28;20052;-61
2022/03/12 05:18:06;;;;;;;0.10;0.10;;;3.60;99.90;;;;;;5027954;28;20442;-60
2022/03/12 05:20:34;;;;;;;0.00;0.00;;;3.80;99.90;;;;;;5045504;28;20099;-61
2022/03/12 05:23:00;;;;;;;0.10;0.10;;;3.60;99.90;;;;;;5044786;28;20037;-60
2022/03/12 05:25:29;;;;;;;0.20;0.20;;;3.60;99.90;;;;;;5045098;28;20041;-61
2022/03/12 05:27:55;;;;;;;0.00;0.00;;;3.50;99.90;;;;;;5044438;28;20091;-61
2022/03/12 05:30:21;;;;;;;0.00;0.00;;;3.50;99.90;;;;;;5045146;28;20068;-61
2022/03/12 05:32:48;;;;;;;0.00;0.00;;;3.50;99.90;;;;;;5044358;28;20043;-60
2022/03/12 05:35:17;;;;;;;0.00;0.00;;;5.00;99.90;;;;;;5044314;28;20053;-63
2022/03/12 05:37:45;;;;;;;0.05;0.05;;;3.40;99.90;;;;;;5043786;28;20124;-60
2022/03/12 05:40:11;;;;;;;0.82;0.20;;;3.40;99.90;;;;;;5044825;28;20052;-64
2022/03/12 05:42:38;;;;;;;0.20;0.20;;;3.40;99.90;;;;;;5044524;28;20037;-61
2022/03/12 05:45:09;;;;;;;0.00;0.00;;;3.40;99.90;;;;;;5026667;28;20496;-60
2022/03/12 05:47:37;;;;;;;0.00;0.00;;;3.40;99.90;;;;;;5044319;28;20029;-61
2022/03/12 05:50:05;;;;;;;0.00;0.00;;;3.40;99.90;;;;;;5045036;28;20412;-61
2022/03/12 05:52:31;;;;;;;0.20;0.20;;;4.00;99.90;;;;;;5043888;28;20037;-61
2022/03/12 05:54:57;;;;;;;0.10;0.10;;;3.60;99.90;;;;;;5044370;28;20426;-61
2022/03/12 05:57:22;;;;;;;0.00;0.00;;;3.40;99.90;;;;;;5044780;28;20469;-60
2022/03/12 05:59:49;;;;;;;0.32;0.30;;;3.60;99.90;;;;;;5025236;28;20651;-61
2022/03/12 06:02:16;;;;;;;0.00;0.00;;;3.40;99.90;;;;;;5050789;28;20052;-61
2022/03/12 06:04:42;;;;;;;0.68;0.63;;;4.60;99.90;;;;;;5030183;28;20132;-60
2022/03/12 06:07:09;;;;;;;0.13;0.13;;;3.30;99.90;;;;;;5043683;28;20095;-61
2022/03/12 06:09:35;;;;;;;0.00;0.00;;;3.30;99.90;;;;;;5044103;28;20037;-61
2022/03/12 06:12:02;;;;;;;0.10;0.10;;;3.30;99.90;;;;;;5026539;28;20138;-61
2022/03/12 06:14:29;;;;;;;0.00;0.00;;;3.40;99.90;;;;;;5044195;28;20045;-61
2022/03/12 06:16:55;;;;;;;0.08;0.08;;;3.40;99.90;;;;;;5043288;28;20045;-61
2022/03/12 06:19:21;;;;;;;0.00;0.00;;;3.40;99.90;;;;;;5026339;28;20048;-61
2022/03/12 06:21:47;;;;;;;0.20;0.20;;;3.30;99.90;;;;;;5043584;28;20060;-61
2022/03/12 06:24:14;;;;;;;0.00;0.00;;;3.40;99.90;;;;;;5043245;28;20407;-61
2022/03/12 06:26:41;;;;;;;0.00;0.00;;;3.40;99.90;;;;;;5042446;28;20044;-61
2022/03/12 06:29:13;;;;;;;0.00;0.00;;;3.40;99.90;;;;;;5044120;28;20128;-61
2022/03/12 06:31:40;;;;;;;0.30;0.22;;;3.40;99.90;;;;;;5043496;28;20183;-59
2022/03/12 06:34:09;;;;;;;0.20;0.20;;;3.50;99.90;;;;;;5025534;28;20045;-59
2022/03/12 06:36:36;;;;;;;0.00;0.00;;;3.60;99.90;;;;;;5042711;28;20753;-60
2022/03/12 06:39:02;;;;;;;0.13;0.10;;;3.60;99.90;;;;;;5043485;28;20096;-59
2022/03/12 06:41:28;;;;;;;0.00;0.00;;;3.70;99.90;;;;;;5043667;28;20077;-60
2022/03/12 06:43:56;;;;;;;0.00;0.00;;;3.70;99.90;;;;;;5043145;28;20102;-60
2022/03/12 06:46:22;;;;;;;0.10;0.10;;;3.70;99.90;;;;;;5043658;28;20040;-60
2022/03/12 06:48:48;;;;;;;0.00;0.00;;;3.70;99.90;;;;;;5024665;28;20055;-60
2022/03/12 06:51:14;;;;;;;0.20;0.20;;;3.80;99.90;;;;;;5042549;28;20045;-60
2022/03/12 06:53:40;;;;;;;0.00;0.00;;;3.80;99.90;;;;;;5042481;28;20037;-60
2022/03/12 06:56:07;;;;;;;0.00;0.00;;;3.80;99.90;;;;;;5043642;28;20040;-60
2022/03/12 06:58:33;;;;;;;0.00;0.00;;;3.80;99.90;;;;;;5043026;28;20506;-60
2022/03/12 07:00:58;;;;;;;0.00;0.00;;;4.40;99.90;;;;;;5025632;28;20056;-60
2022/03/12 07:03:24;;;;;;;0.00;0.00;;;3.90;99.90;;;;;;5053778;28;20262;-60
2022/03/12 07:05:51;;;;;;;0.00;0.00;;;3.90;99.90;;;;;;5042397;28;20075;-61
2022/03/12 07:08:19;;;;;;;0.00;0.00;;;3.90;99.90;;;;;;5041474;28;20045;-60
2022/03/12 07:10:45;;;;;;;1.02;0.90;;;3.20;99.90;;;;;;5042691;28;20068;-60
2022/03/12 07:13:11;;;;;;;0.05;0.05;;;4.00;99.90;;;;;;5043579;28;20415;-61
2022/03/12 07:15:37;;;;;;;0.00;0.00;;;5.00;99.90;;;;;;5024632;28;20067;-60
2022/03/12 07:18:03;;;;;;;0.00;0.00;;;4.00;99.90;;;;;;5043074;28;20406;-59
2022/03/12 07:20:29;;;;;;;0.10;0.10;;;4.00;99.90;;;;;;5043079;28;20077;-60
2022/03/12 07:22:55;;;;;;;0.03;0.03;;;4.00;99.90;;;;;;5023631;28;20087;-60
2022/03/12 07:25:20;;;;;;;0.00;0.00;;;4.00;99.90;;;;;;5043137;28;20129;-60
2022/03/12 07:27:46;;;;;;;0.00;0.00;;;4.00;99.90;;;;;;5025126;28;20060;-60
2022/03/12 07:30:14;;;;;;;2.10;1.55;;;4.10;99.90;;;;;;5043417;28;20131;-62
2022/03/12 07:32:42;;;;;;;0.00;0.00;;;4.10;99.90;;;;;;5025625;28;20056;-60
2022/03/12 07:35:08;;;;;;;0.00;0.00;;;4.20;99.90;;;;;;5047315;28;20420;-61
2022/03/12 07:37:34;;;;;;;0.10;0.10;;;4.20;99.90;;;;;;5029111;28;20041;-60
2022/03/12 07:40:01;;;;;;;0.00;0.00;;;4.20;99.90;;;;;;5046865;28;20407;-60
2022/03/12 07:42:26;;;;;;;0.00;0.00;;;4.30;99.90;;;;;;5047012;28;20419;-58
2022/03/12 07:44:53;;;;;;;0.10;0.10;;;4.40;99.90;;;;;;5046691;28;20048;-57
2022/03/12 07:47:18;;;;;;;0.03;0.03;;;4.80;99.90;;;;;;5047200;28;20120;-61
2022/03/12 07:49:44;;;;;;;0.30;0.30;;;4.60;99.90;;;;;;5044597;28;20148;-61
2022/03/12 07:52:13;;;;;;;0.00;0.00;;;4.70;99.90;;;;;;5046471;28;20059;-61
2022/03/12 07:54:39;;;;;;;0.00;0.00;;;4.80;99.90;;;;;;5046639;28;20586;-61
2022/03/12 07:57:05;;;;;;;0.10;0.10;;;5.20;99.90;;;;;;5046468;28;20041;-58
2022/03/12 07:59:31;;;;;;;0.03;0.03;;;4.90;99.90;;;;;;5047005;28;20437;-59
2022/03/12 08:01:58;;;;;;;0.00;0.00;;;5.00;99.90;;;;;;5032420;28;20552;-60
2022/03/12 08:04:24;;;;;;;0.00;0.00;;;5.10;99.90;;;;;;5055401;28;20419;-61
2022/03/12 08:06:50;;;;;;;0.00;0.00;;;5.10;99.90;;;;;;5056509;28;20032;-60
2022/03/12 08:09:16;;;;;;;0.00;0.00;;;6.80;99.90;;;;;;5066702;28;20451;-59
2022/03/12 08:11:42;;;;;;;0.52;0.20;;;5.20;99.90;;;;;;5066110;28;20072;-59
2022/03/12 08:14:15;;;;;;;0.00;0.00;;;5.90;99.90;;;;;;5048301;28;20058;-60
2022/03/12 08:16:41;;;;;;;0.00;0.00;;;5.30;99.90;;;;;;5066169;28;20105;-60
2022/03/12 08:19:08;;;;;;;0.00;0.00;;;5.50;99.90;;;;;;5066675;28;20045;-60
2022/03/12 08:21:34;;;;;;;0.30;0.30;;;5.90;99.90;;;;;;5066297;28;20124;-60
2022/03/12 08:24:04;;;;;;;0.00;0.00;;;5.80;99.90;;;;;;5047532;28;20541;-59
2022/03/12 08:26:32;;;;;;;0.08;0.08;;;5.90;99.90;;;;;;5065929;28;20055;-62
2022/03/12 08:28:58;;;;;;;0.10;0.10;;;6.00;99.90;;;;;;5064040;28;20115;-62
2022/03/12 08:31:23;;;;;;;1.30;0.20;;;6.20;99.90;;;;;;5065123;28;20589;-63
2022/03/12 08:33:49;;;;;;;0.30;0.30;;;6.50;99.90;;;;;;5061142;28;20124;-63
2022/03/12 08:36:15;;;;;;;0.00;0.00;;;6.60;99.90;;;;;;5055430;28;20526;-63
2022/03/12 08:38:41;;;;;;;0.20;0.20;;;7.30;99.90;;;;;;5058522;28;20436;-65
2022/03/12 08:41:08;;;;;;;0.20;0.20;;;6.80;99.60;;;;;;5063245;28;20032;-63
2022/03/12 08:43:36;;;;;;;0.20;0.20;;;7.00;99.80;;;;;;5045065;28;20052;-63
2022/03/12 08:46:05;;;;;;;1.08;1.00;;;7.10;99.90;;;;;;5058054;28;20123;-63
2022/03/12 08:48:32;;;;;;;0.98;0.52;;;6.50;99.80;;;;;;5065739;28;20383;-63
2022/03/12 08:50:57;;;;;;;0.75;0.75;;;7.50;99.90;;;;;;5045781;28;20048;-64
2022/03/12 08:53:24;;;;;;;0.00;0.00;;;7.40;99.60;;;;;;5045050;28;20052;-64
2022/03/12 08:55:50;;;;;;;0.35;0.35;;;7.60;99.30;;;;;;5044625;28;20052;-63
2022/03/12 08:58:17;;;;;;;0.05;0.05;;;7.80;98.80;;;;;;5027618;28;20049;-64
2022/03/12 09:00:43;;;;;;;0.85;0.75;;;7.80;98.90;;;;;;5044708;28;20080;-63
2022/03/12 09:03:11;;;;;;;0.00;0.00;;;7.90;97.90;;;;;;5056961;28;20091;-64
2022/03/12 09:05:38;;;;;;;1.27;1.17;;;8.00;98.80;;;;;;5045175;28;20053;-64
2022/03/12 09:08:04;;;;;;;0.55;0.55;;;8.20;98.70;;;;;;5044923;28;20057;-64
2022/03/12 09:10:30;;;;;;;0.00;0.00;;;9.30;98.50;;;;;;5055747;28;20178;-62
2022/03/12 09:12:56;;;;;;;0.30;0.30;;;8.80;97.10;;;;;;5053559;28;20120;-63
2022/03/12 09:15:24;;;;;;;0.47;0.47;;;8.70;97.80;;;;;;5045468;28;20060;-63
2022/03/12 09:17:51;;;;;;;0.03;0.03;;;8.70;97.10;;;;;;5045024;28;20183;-63
2022/03/12 09:20:16;;;;;;;0.00;0.00;;;8.90;97.10;;;;;;5026897;28;20052;-63
2022/03/12 09:22:42;;;;;;;0.08;0.08;;;9.60;96.80;;;;;;5044321;28;20484;-62
2022/03/12 09:25:12;;;;;;;1.75;0.68;;;9.60;96.20;;;;;;5045244;28;20128;-62
2022/03/12 09:27:38;;;;;;;0.00;0.00;;;9.70;96.20;;;;;;5045059;28;20183;-63
2022/03/12 09:30:05;;;;;;;0.10;0.10;;;10.10;95.50;;;;;;5047625;28;20044;-62
2022/03/12 09:32:31;;;;;;;0.10;0.10;;;10.20;95.60;;;;;;5047385;28;20399;-62
2022/03/12 09:34:57;;;;;;;0.47;0.25;;;10.00;95.50;;;;;;5064502;28;20044;-63
2022/03/12 09:37:23;;;;;;;0.00;0.00;;;10.10;96.00;;;;;;5063750;28;20039;-64
2022/03/12 09:39:49;;;;;;;0.57;0.38;;;10.30;96.20;;;;;;5064367;28;20075;-62
2022/03/12 09:42:14;;;;;;;0.00;0.00;;;10.50;96.10;;;;;;5065210;28;20040;-62
2022/03/12 09:44:40;;;;;;;0.20;0.20;;;11.00;96.00;;;;;;5064507;28;20198;-62
2022/03/12 09:47:06;;;;;;;0.52;0.20;;;10.90;95.80;;;;;;5046443;28;20043;-63
2022/03/12 09:49:35;;;;;;;2.95;1.17;;;11.20;95.80;;;;;;5047284;28;20522;-64
2022/03/12 09:52:01;;;;;;;0.47;0.32;;;11.00;96.50;;;;;;5046332;28;20076;-63
2022/03/12 09:54:28;;;;;;;0.88;0.88;;;10.70;97.50;;;;;;5063849;28;20049;-63
2022/03/12 09:56:54;;;;;;;0.10;0.10;;;11.00;98.20;;;;;;5043188;28;20056;-63
2022/03/12 09:59:20;;;;;;;0.55;0.30;;;11.40;98.20;;;;;;5063789;28;20094;-63
2022/03/12 10:01:46;;;;;;;0.20;0.20;;;11.70;97.50;;;;;;5057314;28;20392;-65
2022/03/12 10:04:12;;;;;;;0.98;0.73;;;11.50;98.40;;;;;;5052674;28;20100;-63
2022/03/12 10:06:39;;;;;;;0.57;0.45;;;11.40;98.90;;;;;;5043679;28;20092;-63
2022/03/12 10:09:05;;;;;;;0.05;0.05;;;11.20;99.90;;;;;;5044612;28;20404;-62
2022/03/12 10:11:33;;;;;;;0.17;0.17;;;11.20;99.90;;;;;;5044304;28;20507;-62
2022/03/12 10:13:59;;;;;;;1.67;1.38;;;11.30;99.90;;;;;;5043847;28;20053;-60
2022/03/12 10:16:25;;;;;;;0.00;0.00;;;11.40;99.90;;;;;;5026767;28;20124;-61
2022/03/12 10:18:51;;;;;;;1.13;0.85;;;11.40;99.90;;;;;;5025346;28;20053;-62
2022/03/12 10:21:17;;;;;;;0.50;0.40;;;11.80;99.90;;;;;;5025852;28;20080;-62
2022/03/12 10:23:43;;;;;;;0.45;0.45;;;11.70;99.90;;;;;;5042811;28;20084;-62
2022/03/12 10:26:09;;;;;;;0.22;0.22;;;12.00;99.90;;;;;;5044069;28;20076;-62
2022/03/12 10:28:36;;;;;;;0.10;0.10;;;12.10;99.90;;;;;;5043834;28;20541;-55
2022/03/12 10:31:07;;;;;;;0.00;0.00;;;12.10;99.90;;;;;;5043303;28;20147;-62
2022/03/12 10:33:33;;;;;;;0.60;0.60;;;11.90;99.90;;;;;;5046412;28;20630;-63
2022/03/12 10:36:16;;;;;;;0.32;0.32;;;12.20;99.90;;;;;;5033090;28;20088;-62
2022/03/12 10:38:48;;;;;;;0.65;0.65;;;12.20;99.90;;;;;;5050336;28;20058;-62
2022/03/12 10:41:15;;;;;;;0.30;0.30;;;12.20;99.90;;;;;;5050091;28;20118;-62
2022/03/12 10:43:49;;;;;;;0.38;0.35;;;12.20;99.90;;;;;;5044011;28;20124;-63
2022/03/12 10:46:21;;;;;;;0.00;0.00;;;12.40;99.90;;;;;;5034288;28;20056;-62
2022/03/12 10:48:57;;;;;;;0.55;0.22;;;12.50;99.90;;;;;;5062052;28;20044;-62
2022/03/12 10:51:32;;;;;;;0.40;0.32;;;12.30;99.90;;;;;;5061749;28;20056;-63
2022/03/12 10:54:15;;;;;;;0.82;0.77;;;12.40;99.90;;;;;;5044611;28;20044;-63
2022/03/12 10:56:50;;;;;;;0.10;0.10;;;12.40;99.90;;;;;;5061651;28;20067;-63
2022/03/12 10:59:22;;;;;;;0.47;0.30;;;12.60;99.90;;;;;;5045137;28;20117;-63
2022/03/12 11:01:48;;;;;;;0.30;0.30;;;12.90;99.90;;;;;;5055364;28;20084;-63
2022/03/12 11:04:26;;;;;;;0.22;0.15;;;12.90;99.90;;;;;;5050705;28;20601;-64
2022/03/12 11:06:54;;;;;;;0.22;0.20;;;12.90;99.90;;;;;;5040259;28;20434;-63
2022/03/12 11:09:35;;;;;;;0.80;0.43;;;13.30;99.90;;;;;;5053754;28;20041;-63
2022/03/12 11:12:04;;;;;;;0.35;0.30;;;13.50;99.90;;;;;;5054291;28;20053;-63
2022/03/12 11:14:30;;;;;;;0.25;0.25;;;13.60;99.90;;;;;;5054670;28;20045;-64
2022/03/12 11:16:56;;;;;;;0.13;0.10;;;13.40;99.90;;;;;;5050840;28;20049;-63
2022/03/12 11:19:37;;;;;;;1.95;0.57;;;13.50;99.90;;;;;;5049864;28;20051;-63
2022/03/12 11:22:12;;;;;;;0.20;0.10;;;13.70;99.90;;;;;;5045730;28;20057;-63
2022/03/12 11:24:52;;;;;;;0.82;0.47;;;13.80;99.90;;;;;;5024950;28;20041;-63
2022/03/12 11:27:34;;;;;;;0.60;0.20;;;13.90;99.90;;;;;;5041720;28;20144;-64
2022/03/12 11:30:08;;;;;;;0.05;0.05;;;13.80;99.90;;;;;;5041860;28;20083;-63
2022/03/12 11:32:44;;;;;;;0.03;0.03;;;13.70;99.90;;;;;;5042634;28;20135;-61
2022/03/12 11:35:13;;;;;;;0.30;0.20;;;14.00;99.90;;;;;;5057281;28;20290;-63
2022/03/12 11:37:41;;;;;;;0.68;0.68;;;13.80;99.90;;;;;;5060445;28;20132;-63
2022/03/12 11:40:16;;;;;;;0.00;0.00;;;13.80;99.90;;;;;;5044265;28;20084;-63
2022/03/12 11:42:42;;;;;;;0.00;0.00;;;13.70;99.90;;;;;;5061681;28;20432;-63
2022/03/12 11:45:14;;;;;;;0.88;0.45;;;14.00;99.90;;;;;;5044517;28;20057;-64
2022/03/12 11:47:41;;;;;;;2.28;1.05;;;13.80;99.90;;;;;;5061658;28;20044;-64
2022/03/12 11:50:12;;;;;;;0.05;0.05;;;13.60;99.90;;;;;;5062617;28;20048;-64
2022/03/12 11:52:38;;;;;;;0.43;0.22;;;13.70;99.90;;;;;;5061486;28;20466;-63
2022/03/12 11:55:12;;;;;;;0.40;0.20;;;13.70;99.90;;;;;;5044382;28;20131;-64
2022/03/12 11:57:37;;;;;;;0.43;0.25;;;13.90;99.90;;;;;;5044552;28;20107;-64
2022/03/12 12:00:10;;;;;;;0.75;0.40;;;14.10;99.90;;;;;;5062429;28;20056;-64
2022/03/12 12:02:36;;;;;;;0.20;0.13;;;14.20;99.90;;;;;;5044093;28;20459;-64
2022/03/12 12:05:10;;;;;;;0.20;0.20;;;14.50;99.90;;;;;;5026089;28;20088;-64
2022/03/12 12:07:41;;;;;;;1.05;0.75;;;14.60;99.90;;;;;;5041291;28;20041;-64
2022/03/12 12:10:08;;;;;;;0.00;0.00;;;14.50;99.90;;;;;;5041907;28;20041;-63
2022/03/12 12:12:34;;;;;;;1.33;1.20;;;14.80;99.90;;;;;;5042824;28;20056;-64
2022/03/12 12:15:03;;;;;;;0.10;0.10;;;14.50;99.90;;;;;;5042285;28;20084;-63
2022/03/12 12:17:30;;;;;;;0.30;0.20;;;14.60;99.90;;;;;;5042188;28;20029;-63
2022/03/12 12:19:57;;;;;;;0.30;0.20;;;14.60;99.90;;;;;;5044613;28;20072;-63
2022/03/12 12:22:23;;;;;;;0.43;0.38;;;14.40;99.90;;;;;;5045029;28;20451;-64
2022/03/12 12:24:53;;;;;;;1.13;0.75;;;14.40;99.90;;;;;;5045169;28;20124;-63
2022/03/12 12:27:23;;;;;;;0.10;0.10;;;14.50;99.90;;;;;;5045230;28;20403;-64
2022/03/12 12:29:56;;;;;;;0.30;0.30;;;14.40;99.90;;;;;;5045284;28;20052;-63
2022/03/12 12:32:24;;;;;;;0.70;0.13;;;14.40;99.90;;;;;;5045921;28;20044;-64
2022/03/12 12:35:15;;;;;;;0.60;0.40;;;14.60;99.90;;;;;;5027077;28;20136;-63
2022/03/12 12:37:58;;;;;;;0.10;0.10;;;14.70;99.90;;;;;;5044227;28;20041;-62
2022/03/12 12:40:35;;;;;;;1.00;0.65;;;15.00;99.90;;;;;;5045500;28;20045;-63
2022/03/12 12:43:10;;;;;;;0.22;0.10;;;14.80;99.90;;;;;;5044368;28;20041;-62
2022/03/12 12:45:58;;;;;;;;;;;14.50;99.90;;;;;;5046030;28;20637;-63
2022/03/12 12:48:45;;;;;;;0.10;0.10;;;14.30;99.90;;;;;;5045306;28;19921;-63
2022/03/12 12:51:15;;;;;;;1.92;0.73;;;14.20;99.90;;;;;;5044745;28;20557;-62
2022/03/12 12:53:43;;;;;;;1.33;0.35;;;14.00;99.90;;;;;;5045227;28;20048;-61
2022/03/12 12:56:18;;;;;;;1.88;0.55;;;14.00;99.90;;;;;;5045352;28;20077;-63
2022/03/12 12:58:52;;;;;;;0.13;0.13;;;14.30;99.90;;;;;;5044713;28;20041;-62